Barren Island, NY

10:23 AM EST on January 24, 2017 (GMT -0500)
Flatlands | | Change Station
Active Advisory: Gale Warning

Elev 16 ft 40.62 °N, 73.92 °W | Updated 4 minutes ago

Mostly Cloudy
Mostly Cloudy
38.7 °F
Feels Like 37 °F
N
3.1
Wind Variable Wind from NNW
Gusts 7.5 mph

Today
High -- | Low -- °F
--% Chance of Precip.
Yesterday
High -- | Low -- °F
Precip. -- in
Pressure 29.34 in
Visibility 7.0 miles
Clouds Mostly Cloudy 900 ft
Overcast 1700 ft
Windchill 37 °F
Dew Point 36 °F
Humidity 92%
Rainfall Not available.
Snow Depth Not available.
7:11 AM 5:04 PM
Waning Crescent, 11% visible
METAR KJFK 241451Z 36019G27KT 7SM -RA BKN009 OVC017 03/02 A2934 RMK AO2 PK WND 35028/1427 SLP935 CIG 007V011 P0002 60002 T00330022 53002 $
Pressure 29.34 in
Visibility 7.0 miles
Clouds Mostly Cloudy 900 ft
Overcast 1700 ft
Windchill 37 °F
Dew Point 36 °F
Humidity 92%
Rainfall Not available.
Snow Depth Not available.
7:11 AM 5:04 PM
Waning Crescent, 11% visible
METAR KJFK 241451Z 36019G27KT 7SM -RA BKN009 OVC017 03/02 A2934 RMK AO2 PK WND 35028/1427 SLP935 CIG 007V011 P0002 60002 T00330022 53002 $

Get Your Daily Forecast Email!

Thanks for signing up!

Be on the lookout for a verification email in your inbox.

You'll start receiving the daily forecast at 8 AM.

×

10-Day Weather Forecast

Almanac

Astronomy

Jan. 24, 2017 Rise Set
Actual Time
Civil Twilight
Nautical Twilight
Astronomical Twilight
Moon
Length of Visible Light
Length of Day
Tomorrow will be .
, % of the Moon is Illuminated

Today's Extremes

State Highs State Lows

Community

WunderPhotos

Upload Photos

1,962,540 photos uploaded!

WunderBlog® & News

Nearby

Air Quality

  Air Quality AQ Index Pollutant
Not available.

Snow Depth

Station Depth Elevation

Earthquake Activity

City Distance Mag. Time & Date
Minimum magnitude displayed is 2.5.

Coastal Water Temperatures

Place Temperature

Stations

Nearby Weather Stations

Station Location Temp. Windchill Dew Point Humidity Wind Precip. Elev Updated Type
                   

Watches & Warnings

Gale Warning
Issued: 5:46 AM EST Jan. 24, 2017 – National Weather Service

... Gale Warning in effect until noon EST today...
... Storm Warning is cancelled...

The National Weather Service in Upton has issued a Gale Warning...
which is in effect until noon EST today. The Storm Warning has
been cancelled.

* Winds and seas... northeast winds 25 to 35 kt with gusts up to 45
kt. Seas 10 to 16 feet.

Precautionary/preparedness actions...

A Gale Warning means sustained winds or frequent gusts of 34 to
47 kt are expected or occurring. Operating a vessel in gale
conditions requires experience and properly equipped vessels. It
is highly recommended that mariners without the proper experience
seek safe Harbor prior to the onset of gale conditions.